Time;durP1;ratioP1;P1;durP2;ratioP2;P2;SDS_P1;SDS_P2;PMS_P1;PMS_P2;Temp;Humidity;BMP_temperature;BMP_pressure;BME280_temperature;BME280_humidity;BME280_pressure;Samples;Min_cycle;Max_cycle;Signal;HPM_P1;HPM_P2
2023/08/19 00:01:03;;;;;;;5.47;2.90;;;;;;;;;;5029702;28;20429;-60
2023/08/19 00:03:33;;;;;;;6.10;3.00;;;;;;;;;;5029907;28;20052;-60
2023/08/19 00:06:08;;;;;;;5.30;3.08;;;;;;;;;;5036706;28;20073;-60
2023/08/19 00:08:35;;;;;;;5.93;3.15;;;;;;;;;;5024129;28;20033;-60
2023/08/19 00:11:02;;;;;;;4.97;3.33;;;;;;;;;;5030872;28;20109;-60
2023/08/19 00:13:30;;;;;;;4.70;3.20;;;;;;;;;;5030513;28;20037;-60
2023/08/19 00:15:56;;;;;;;4.05;3.20;;;;;;;;;;5031962;28;20041;-60
2023/08/19 00:18:23;;;;;;;3.50;3.20;;;;;;;;;;5038330;28;20370;-60
2023/08/19 00:20:52;;;;;;;7.40;3.67;;;;;;;;;;5029826;28;20055;-59
2023/08/19 00:23:22;;;;;;;6.05;3.20;;;;;;;;;;5027128;28;20239;-60
2023/08/19 00:25:48;;;;;;;8.05;3.20;;;;;;;;;;5031585;28;20476;-60
2023/08/19 00:28:14;;;;;;;6.25;3.38;;;;;;;;;;5019670;28;20048;-60
2023/08/19 00:30:40;;;;;;;4.15;2.90;;;;;;;;;;5032017;28;20060;-60
2023/08/19 00:33:07;;;;;;;5.88;2.88;;;;;;;;;;5025333;28;20037;-59
2023/08/19 00:35:33;;;;;;;6.50;3.33;;;;;;;;;;5030994;28;20037;-60
2023/08/19 00:37:59;;;;;;;6.00;3.58;;;;;;;;;;5029347;28;20029;-60
2023/08/19 00:40:26;;;;;;;5.28;3.30;;;;;;;;;;5027229;28;20037;-60
2023/08/19 00:42:52;;;;;;;4.38;3.08;;;;;;;;;;5031617;28;20029;-60
2023/08/19 00:45:18;;;;;;;9.25;3.38;;;;;;;;;;5023625;28;20046;-60
2023/08/19 00:47:45;;;;;;;8.75;3.15;;;;;;;;;;5028459;28;20041;-59
2023/08/19 00:50:12;;;;;;;4.45;2.95;;;;;;;;;;5034454;28;20094;-60
2023/08/19 00:52:39;;;;;;;6.60;3.35;;;;;;;;;;5037714;28;20389;-59
2023/08/19 00:55:06;;;;;;;7.50;3.53;;;;;;;;;;5026578;28;20037;-60
2023/08/19 00:57:35;;;;;;;4.97;3.03;;;;;;;;;;5022451;28;20030;-60
2023/08/19 01:00:03;;;;;;;6.63;2.90;;;;;;;;;;5025752;28;20057;-60
2023/08/19 01:02:31;;;;;;;4.75;3.20;;;;;;;;;;5041996;28;20029;-60
2023/08/19 01:04:58;;;;;;;5.25;2.83;;;;;;;;;;5036449;28;20033;-59
2023/08/19 01:07:47;;;;;;;3.10;2.80;;;;;;;;;;5033827;28;20394;-60
2023/08/19 01:10:22;;;;;;;8.00;3.20;;;;;;;;;;5042856;28;20675;-60
2023/08/19 01:13:03;;;;;;;4.53;2.78;;;;;;;;;;5036691;28;20029;-60
2023/08/19 01:15:34;;;;;;;6.13;2.70;;;;;;;;;;5022065;28;20038;-60
2023/08/19 01:18:03;;;;;;;4.93;2.65;;;;;;;;;;5032348;28;20049;-60
2023/08/19 01:20:31;;;;;;;5.25;2.70;;;;;;;;;;5046068;28;20035;-60
2023/08/19 01:23:15;;;;;;;7.07;2.38;;;;;;;;;;5033054;28;20040;-60
2023/08/19 01:25:43;;;;;;;6.53;2.88;;;;;;;;;;5033291;28;20033;-60
2023/08/19 01:28:10;;;;;;;4.72;2.60;;;;;;;;;;5033842;28;20052;-59
2023/08/19 01:30:36;;;;;;;5.60;3.00;;;;;;;;;;5035595;28;20033;-59
2023/08/19 01:33:03;;;;;;;5.72;2.70;;;;;;;;;;5032723;28;20048;-60
2023/08/19 01:35:35;;;;;;;5.18;2.65;;;;;;;;;;5029804;28;20045;-59
2023/08/19 01:38:26;;;;;;;2.90;2.28;;;;;;;;;;5032789;28;20381;-60
2023/08/19 01:40:53;;;;;;;4.55;2.67;;;;;;;;;;5036780;28;20363;-59
2023/08/19 01:43:19;;;;;;;5.15;2.50;;;;;;;;;;5031842;28;20044;-59
2023/08/19 01:45:45;;;;;;;4.43;2.30;;;;;;;;;;5033837;28;20404;-59
2023/08/19 01:48:12;;;;;;;5.55;2.80;;;;;;;;;;5035853;28;20489;-60
2023/08/19 01:50:38;;;;;;;5.45;2.20;;;;;;;;;;5032318;28;20049;-59
2023/08/19 01:53:04;;;;;;;6.65;2.47;;;;;;;;;;5031319;28;20033;-60
2023/08/19 01:55:30;;;;;;;5.75;2.72;;;;;;;;;;5038730;28;20037;-59
2023/08/19 01:57:57;;;;;;;5.25;2.28;;;;;;;;;;5039549;28;20036;-59
2023/08/19 02:00:23;;;;;;;6.95;2.80;;;;;;;;;;5033255;28;20049;-59
2023/08/19 02:02:49;;;;;;;8.32;2.90;;;;;;;;;;5029284;28;20057;-60
2023/08/19 02:05:15;;;;;;;6.80;2.50;;;;;;;;;;5037312;28;20405;-59
2023/08/19 02:07:42;;;;;;;5.18;2.33;;;;;;;;;;5038299;28;20049;-59
2023/08/19 02:10:09;;;;;;;5.35;2.50;;;;;;;;;;5032324;28;20056;-59
2023/08/19 02:12:35;;;;;;;5.05;2.60;;;;;;;;;;5014005;28;20037;-59
2023/08/19 02:15:03;;;;;;;4.18;2.65;;;;;;;;;;5033623;28;20041;-59
2023/08/19 02:17:30;;;;;;;6.40;2.80;;;;;;;;;;5041177;28;20037;-59
2023/08/19 02:19:58;;;;;;;5.10;2.40;;;;;;;;;;5034365;28;20029;-60
2023/08/19 02:22:24;;;;;;;4.18;2.60;;;;;;;;;;5028668;28;20034;-59
2023/08/19 02:24:51;;;;;;;9.68;2.92;;;;;;;;;;5013691;28;20405;-60
2023/08/19 02:27:17;;;;;;;6.32;2.55;;;;;;;;;;5029598;28;20404;-59
2023/08/19 02:29:43;;;;;;;4.68;2.70;;;;;;;;;;5026533;28;20041;-59
2023/08/19 02:32:09;;;;;;;4.10;2.45;;;;;;;;;;5032827;28;20038;-60
2023/08/19 02:34:35;;;;;;;6.03;2.67;;;;;;;;;;5030490;28;20036;-60
2023/08/19 02:37:01;;;;;;;3.20;2.40;;;;;;;;;;5033736;28;20400;-60
2023/08/19 02:39:28;;;;;;;5.78;2.97;;;;;;;;;;5033315;28;20033;-59
2023/08/19 02:41:54;;;;;;;4.78;2.90;;;;;;;;;;5051658;28;20049;-58
2023/08/19 02:44:20;;;;;;;6.60;2.83;;;;;;;;;;5034322;28;20034;-59
2023/08/19 02:46:46;;;;;;;7.20;3.20;;;;;;;;;;5031578;28;20044;-59
2023/08/19 02:49:12;;;;;;;6.28;2.83;;;;;;;;;;5039025;28;20052;-58
2023/08/19 02:51:38;;;;;;;5.68;2.70;;;;;;;;;;5030919;28;20040;-59
2023/08/19 02:54:04;;;;;;;7.55;2.80;;;;;;;;;;5023262;28;20030;-60
2023/08/19 02:56:30;;;;;;;4.70;2.80;;;;;;;;;;5033674;28;20563;-60
2023/08/19 02:58:57;;;;;;;5.53;2.70;;;;;;;;;;5032779;28;20407;-60
2023/08/19 03:01:23;;;;;;;5.40;3.10;;;;;;;;;;5024280;28;20037;-60
2023/08/19 03:03:49;;;;;;;6.35;3.40;;;;;;;;;;5029681;28;20037;-60
2023/08/19 03:06:15;;;;;;;6.75;3.40;;;;;;;;;;5029670;28;20033;-58
2023/08/19 03:08:41;;;;;;;8.38;3.65;;;;;;;;;;5032199;28;20060;-60
2023/08/19 03:11:07;;;;;;;6.55;3.47;;;;;;;;;;5013317;28;20045;-59
2023/08/19 03:13:35;;;;;;;10.52;3.90;;;;;;;;;;5038961;28;20028;-60
2023/08/19 03:16:02;;;;;;;6.72;3.63;;;;;;;;;;5029296;28;20512;-60
2023/08/19 03:18:29;;;;;;;8.52;3.85;;;;;;;;;;5030264;28;20052;-61
2023/08/19 03:20:58;;;;;;;8.77;3.55;;;;;;;;;;5026645;28;20093;-60
2023/08/19 03:23:26;;;;;;;7.13;3.72;;;;;;;;;;5029894;28;20034;-60
2023/08/19 03:25:53;;;;;;;5.88;3.78;;;;;;;;;;5028295;28;20033;-60
2023/08/19 03:28:20;;;;;;;7.15;3.95;;;;;;;;;;5031817;28;20048;-60
2023/08/19 03:30:46;;;;;;;6.25;3.70;;;;;;;;;;5027159;28;20042;-59
2023/08/19 03:33:12;;;;;;;7.30;4.03;;;;;;;;;;5029010;28;20029;-60
2023/08/19 03:35:38;;;;;;;6.95;4.38;;;;;;;;;;5012767;28;20041;-59
2023/08/19 03:38:07;;;;;;;6.00;3.88;;;;;;;;;;5012670;28;20036;-60
2023/08/19 03:40:33;;;;;;;6.85;4.13;;;;;;;;;;5022229;28;20398;-60
2023/08/19 03:42:59;;;;;;;6.72;3.80;;;;;;;;;;5044160;28;20033;-57
2023/08/19 03:45:32;;;;;;;6.93;4.00;;;;;;;;;;5024471;28;20033;-59
2023/08/19 03:47:58;;;;;;;7.13;4.03;;;;;;;;;;5035071;28;20036;-60
2023/08/19 03:50:25;;;;;;;5.35;3.70;;;;;;;;;;5023914;28;20409;-59
2023/08/19 03:52:51;;;;;;;9.60;4.32;;;;;;;;;;5022150;28;20022;-60
2023/08/19 03:55:17;;;;;;;9.68;4.25;;;;;;;;;;5010608;28;20048;-60
2023/08/19 03:57:43;;;;;;;6.88;3.88;;;;;;;;;;4998643;28;20049;-60
2023/08/19 04:00:10;;;;;;;6.32;3.78;;;;;;;;;;5021541;28;20037;-60
2023/08/19 04:02:45;;;;;;;9.82;4.25;;;;;;;;;;5025919;28;20512;-61
2023/08/19 04:05:12;;;;;;;11.13;4.00;;;;;;;;;;5038296;28;20489;-60
2023/08/19 04:07:38;;;;;;;5.72;4.03;;;;;;;;;;5041533;28;20036;-60
2023/08/19 04:10:05;;;;;;;7.75;3.92;;;;;;;;;;5038724;28;20037;-60
2023/08/19 04:12:31;;;;;;;6.70;3.80;;;;;;;;;;5027631;28;20059;-60
2023/08/19 04:14:57;;;;;;;5.05;3.90;;;;;;;;;;5030985;28;20049;-60
2023/08/19 04:17:25;;;;;;;7.57;3.70;;;;;;;;;;5029297;28;20037;-60
2023/08/19 04:19:51;;;;;;;9.57;4.43;;;;;;;;;;5024265;28;20050;-60
2023/08/19 04:22:17;;;;;;;6.32;3.83;;;;;;;;;;5029331;28;20056;-60
2023/08/19 04:24:50;;;;;;;9.13;4.68;;;;;;;;;;5028043;28;20034;-60
2023/08/19 04:27:17;;;;;;;5.35;3.58;;;;;;;;;;5025218;28;20054;-60
2023/08/19 04:29:44;;;;;;;5.97;4.38;;;;;;;;;;5029415;28;20452;-59
2023/08/19 04:32:10;;;;;;;8.98;4.72;;;;;;;;;;5024093;28;20048;-59
2023/08/19 04:34:38;;;;;;;9.00;4.85;;;;;;;;;;5026176;28;20041;-59
2023/08/19 04:37:06;;;;;;;9.35;4.65;;;;;;;;;;5033668;28;20048;-59
2023/08/19 04:39:33;;;;;;;9.45;5.57;;;;;;;;;;5024517;28;20044;-59
2023/08/19 04:42:07;;;;;;;9.43;4.68;;;;;;;;;;5023821;28;20042;-59
2023/08/19 04:44:33;;;;;;;7.05;4.43;;;;;;;;;;5013452;28;20053;-59
2023/08/19 04:46:59;;;;;;;7.78;4.65;;;;;;;;;;5004503;28;20057;-59
2023/08/19 04:49:27;;;;;;;11.57;5.53;;;;;;;;;;5034167;28;20045;-59
2023/08/19 04:51:53;;;;;;;8.82;4.93;;;;;;;;;;5030656;28;20068;-59
2023/08/19 04:54:19;;;;;;;7.22;4.75;;;;;;;;;;5026538;28;20400;-60
2023/08/19 04:56:45;;;;;;;7.43;4.57;;;;;;;;;;5005594;28;20401;-60
2023/08/19 04:59:11;;;;;;;11.23;4.97;;;;;;;;;;5021164;28;20064;-60
2023/08/19 05:01:37;;;;;;;10.20;5.28;;;;;;;;;;5029241;28;20040;-60
2023/08/19 05:04:04;;;;;;;12.15;5.28;;;;;;;;;;5033774;28;20049;-60
2023/08/19 05:06:30;;;;;;;11.40;5.80;;;;;;;;;;5029501;28;20045;-60
2023/08/19 05:08:57;;;;;;;10.68;4.68;;;;;;;;;;5026770;28;20409;-60
2023/08/19 05:11:24;;;;;;;9.85;5.10;;;;;;;;;;5035527;28;20041;-60
2023/08/19 05:13:52;;;;;;;7.78;4.70;;;;;;;;;;5030770;28;20405;-60
2023/08/19 05:16:18;;;;;;;9.80;4.72;;;;;;;;;;5029213;28;20674;-60
2023/08/19 05:19:00;;;;;;;15.45;4.88;;;;;;;;;;5024551;28;20038;-60
2023/08/19 05:21:27;;;;;;;7.55;4.32;;;;;;;;;;5024153;28;20029;-60
2023/08/19 05:23:53;;;;;;;9.35;4.20;;;;;;;;;;5010979;28;20497;-60
2023/08/19 05:26:19;;;;;;;10.50;5.05;;;;;;;;;;5027056;28;20400;-59
2023/08/19 05:28:45;;;;;;;10.75;6.45;;;;;;;;;;5028871;28;20052;-60
2023/08/19 05:31:11;;;;;;;18.60;9.88;;;;;;;;;;5026056;28;20037;-59
2023/08/19 05:33:37;;;;;;;8.40;5.50;;;;;;;;;;5033705;28;20033;-60
2023/08/19 05:36:04;;;;;;;8.98;5.22;;;;;;;;;;5038371;28;20040;-60
2023/08/19 05:38:30;;;;;;;9.40;5.20;;;;;;;;;;5028571;28;20488;-61
2023/08/19 05:40:57;;;;;;;15.30;5.03;;;;;;;;;;5027745;28;20528;-61
2023/08/19 05:43:23;;;;;;;8.02;4.70;;;;;;;;;;5030901;28;20052;-60
2023/08/19 05:45:49;;;;;;;11.30;5.53;;;;;;;;;;5031422;28;20501;-60
2023/08/19 05:48:15;;;;;;;10.27;6.00;;;;;;;;;;5034747;28;20409;-61
2023/08/19 05:50:41;;;;;;;10.85;6.22;;;;;;;;;;5038924;28;20045;-61
2023/08/19 05:53:07;;;;;;;11.35;6.50;;;;;;;;;;5027547;28;20386;-60
2023/08/19 05:55:34;;;;;;;14.98;6.93;;;;;;;;;;5031165;28;20041;-60
2023/08/19 05:58:00;;;;;;;14.30;7.28;;;;;;;;;;5025291;28;20037;-61
2023/08/19 06:00:26;;;;;;;13.07;7.30;;;;;;;;;;5033610;28;20112;-60
2023/08/19 06:02:52;;;;;;;15.07;8.32;;;;;;;;;;5037856;28;20053;-60
2023/08/19 06:05:18;;;;;;;13.02;7.10;;;;;;;;;;5042938;28;20041;-61
2023/08/19 06:07:44;;;;;;;14.13;6.20;;;;;;;;;;5042014;28;20044;-60
2023/08/19 06:10:10;;;;;;;14.32;5.88;;;;;;;;;;5040278;28;20053;-60
2023/08/19 06:12:37;;;;;;;11.20;5.38;;;;;;;;;;5030717;28;20401;-60
2023/08/19 06:15:03;;;;;;;9.95;6.10;;;;;;;;;;5041062;28;20044;-60
2023/08/19 06:17:30;;;;;;;11.82;6.35;;;;;;;;;;5030486;28;20436;-60
2023/08/19 06:19:56;;;;;;;11.57;5.75;;;;;;;;;;5033938;28;20033;-60
2023/08/19 06:22:22;;;;;;;10.57;6.22;;;;;;;;;;5032485;28;20049;-61
2023/08/19 06:24:48;;;;;;;9.38;5.82;;;;;;;;;;5034115;28;20402;-60
2023/08/19 06:27:14;;;;;;;10.65;5.82;;;;;;;;;;5035587;28;20056;-61
2023/08/19 06:29:40;;;;;;;8.55;5.25;;;;;;;;;;5025553;28;20034;-60
2023/08/19 06:32:07;;;;;;;9.65;5.38;;;;;;;;;;5031277;28;20370;-60
2023/08/19 06:34:33;;;;;;;8.38;5.47;;;;;;;;;;5027944;28;20033;-60
2023/08/19 06:37:01;;;;;;;10.98;5.93;;;;;;;;;;5035904;28;20648;-61
2023/08/19 06:39:27;;;;;;;9.43;5.65;;;;;;;;;;5032517;28;20060;-61
2023/08/19 06:42:01;;;;;;;6.63;5.30;;;;;;;;;;5037042;28;20060;-60
2023/08/19 06:44:32;;;;;;;14.88;5.82;;;;;;;;;;5031865;28;20037;-61
2023/08/19 06:47:01;;;;;;;17.20;6.45;;;;;;;;;;5031054;28;20041;-61
2023/08/19 06:49:27;;;;;;;;;;;;;;;;;;5029138;28;20025;-60
2023/08/19 06:51:54;;;;;;;13.77;7.32;;;;;;;;;;5026423;28;19923;-60
2023/08/19 06:54:20;;;;;;;12.05;5.30;;;;;;;;;;5024807;28;20033;-59
2023/08/19 06:57:09;;;;;;;13.48;5.88;;;;;;;;;;5036600;28;20409;-60
2023/08/19 06:59:37;;;;;;;12.38;5.53;;;;;;;;;;5026813;28;20029;-60
2023/08/19 07:02:05;;;;;;;12.18;5.70;;;;;;;;;;5031846;28;20052;-60
2023/08/19 07:04:31;;;;;;;12.50;6.47;;;;;;;;;;5030693;28;20037;-60
2023/08/19 07:06:59;;;;;;;10.35;6.00;;;;;;;;;;5038257;28;20029;-60
2023/08/19 07:09:26;;;;;;;11.90;5.70;;;;;;;;;;5032242;28;20032;-60
2023/08/19 07:11:53;;;;;;;10.35;5.60;;;;;;;;;;5030303;28;20409;-60
2023/08/19 07:14:19;;;;;;;12.63;5.82;;;;;;;;;;5031662;28;20512;-61
2023/08/19 07:16:48;;;;;;;15.02;6.20;;;;;;;;;;5032505;28;20040;-61
2023/08/19 07:19:18;;;;;;;12.10;6.18;;;;;;;;;;5021851;28;20448;-60
2023/08/19 07:21:46;;;;;;;18.63;6.45;;;;;;;;;;5032009;28;20109;-59
2023/08/19 07:24:13;;;;;;;16.33;6.20;;;;;;;;;;5027555;28;20048;-61
2023/08/19 07:26:40;;;;;;;10.80;5.50;;;;;;;;;;5027139;28;20045;-60
2023/08/19 07:29:06;;;;;;;8.52;5.18;;;;;;;;;;5031337;28;20048;-61
2023/08/19 07:31:33;;;;;;;11.15;5.70;;;;;;;;;;5034271;28;20533;-60
2023/08/19 07:33:59;;;;;;;11.38;5.90;;;;;;;;;;5032948;28;20040;-60
2023/08/19 07:36:26;;;;;;;11.02;6.00;;;;;;;;;;5032825;28;20025;-61
2023/08/19 07:38:53;;;;;;;13.30;7.15;;;;;;;;;;5032170;28;20049;-60
2023/08/19 07:41:19;;;;;;;12.48;5.70;;;;;;;;;;5028318;28;20053;-61
2023/08/19 07:43:47;;;;;;;9.52;5.95;;;;;;;;;;5031544;28;20045;-61
2023/08/19 07:46:17;;;;;;;14.98;5.88;;;;;;;;;;5030936;28;20046;-61
2023/08/19 07:48:44;;;;;;;11.15;5.40;;;;;;;;;;5031136;28;20053;-60
2023/08/19 07:51:11;;;;;;;15.38;5.63;;;;;;;;;;5031272;28;20169;-61
2023/08/19 07:53:37;;;;;;;8.80;5.90;;;;;;;;;;5025506;28;20033;-60
2023/08/19 07:56:05;;;;;;;16.48;6.25;;;;;;;;;;5022947;28;20524;-61
2023/08/19 07:58:32;;;;;;;11.85;6.78;;;;;;;;;;5031452;28;20108;-59
2023/08/19 08:00:59;;;;;;;12.85;6.47;;;;;;;;;;5031128;28;20041;-61
2023/08/19 08:03:25;;;;;;;15.95;7.07;;;;;;;;;;5029966;28;20033;-61
2023/08/19 08:05:51;;;;;;;16.90;7.65;;;;;;;;;;5012384;28;20030;-60
2023/08/19 08:08:17;;;;;;;16.67;8.18;;;;;;;;;;5031288;28;20028;-61
2023/08/19 08:10:44;;;;;;;16.90;8.60;;;;;;;;;;5039286;28;20060;-61
2023/08/19 08:13:10;;;;;;;16.85;7.85;;;;;;;;;;5038506;28;20052;-60
2023/08/19 08:15:36;;;;;;;14.27;7.68;;;;;;;;;;5031884;28;20413;-61
2023/08/19 08:18:02;;;;;;;13.55;6.85;;;;;;;;;;5031260;28;20428;-60
2023/08/19 08:20:29;;;;;;;11.35;6.57;;;;;;;;;;5031974;28;20045;-60
2023/08/19 08:22:55;;;;;;;10.95;7.25;;;;;;;;;;5028667;28;20041;-60
2023/08/19 08:25:22;;;;;;;15.52;6.88;;;;;;;;;;5036835;28;20577;-60
2023/08/19 08:27:48;;;;;;;13.57;6.78;;;;;;;;;;5027387;28;20033;-60
2023/08/19 08:30:15;;;;;;;13.82;6.57;;;;;;;;;;5030974;28;20027;-59
2023/08/19 08:32:41;;;;;;;14.95;6.30;;;;;;;;;;5030031;28;20420;-60
2023/08/19 08:35:07;;;;;;;16.75;5.97;;;;;;;;;;5029961;28;20037;-61
2023/08/19 08:37:34;;;;;;;14.18;6.40;;;;;;;;;;5025104;28;20072;-60
2023/08/19 08:40:00;;;;;;;17.77;6.30;;;;;;;;;;5024583;28;20041;-59
2023/08/19 08:42:26;;;;;;;15.57;7.03;;;;;;;;;;5030265;28;20033;-60
2023/08/19 08:44:53;;;;;;;8.57;6.05;;;;;;;;;;5029568;28;20033;-59
2023/08/19 08:47:20;;;;;;;14.82;6.07;;;;;;;;;;5028044;28;20034;-60
2023/08/19 08:49:48;;;;;;;12.07;6.60;;;;;;;;;;5029016;28;20046;-60
2023/08/19 08:52:14;;;;;;;12.07;6.30;;;;;;;;;;5028062;28;20033;-60
2023/08/19 08:54:42;;;;;;;15.07;5.93;;;;;;;;;;5040275;28;20511;-60
2023/08/19 08:57:08;;;;;;;12.20;5.60;;;;;;;;;;5030748;28;20497;-61
2023/08/19 08:59:34;;;;;;;12.82;5.80;;;;;;;;;;5036671;28;20052;-60
2023/08/19 09:02:02;;;;;;;15.05;6.05;;;;;;;;;;5035758;28;20029;-60
2023/08/19 09:04:30;;;;;;;10.23;5.53;;;;;;;;;;5034488;28;20492;-62
2023/08/19 09:07:02;;;;;;;9.63;5.90;;;;;;;;;;5031901;28;20045;-60
2023/08/19 09:09:32;;;;;;;10.13;6.10;;;;;;;;;;5039108;28;20406;-60
2023/08/19 09:11:59;;;;;;;13.48;6.63;;;;;;;;;;5042609;28;20026;-60
2023/08/19 09:14:36;;;;;;;13.07;5.82;;;;;;;;;;5034436;28;20497;-61
2023/08/19 09:17:02;;;;;;;14.93;6.60;;;;;;;;;;5030455;28;20037;-61
2023/08/19 09:19:28;;;;;;;12.48;6.43;;;;;;;;;;5032020;28;20033;-61
2023/08/19 09:21:55;;;;;;;19.13;9.25;;;;;;;;;;5032071;28;20037;-61
2023/08/19 09:24:21;;;;;;;12.82;7.25;;;;;;;;;;5035633;28;20034;-60
2023/08/19 09:26:48;;;;;;;9.77;6.05;;;;;;;;;;5034480;28;20025;-61
2023/08/19 09:29:14;;;;;;;9.07;6.00;;;;;;;;;;5031653;28;20043;-61
2023/08/19 09:31:40;;;;;;;13.25;6.20;;;;;;;;;;5038340;28;20401;-61
2023/08/19 09:34:06;;;;;;;12.77;6.15;;;;;;;;;;5035387;28;20032;-61
2023/08/19 09:36:32;;;;;;;15.77;6.90;;;;;;;;;;5034169;28;20038;-60
2023/08/19 09:38:58;;;;;;;12.25;6.22;;;;;;;;;;5027772;28;20041;-59
2023/08/19 09:41:29;;;;;;;11.85;6.20;;;;;;;;;;5031579;28;20042;-61
2023/08/19 09:43:59;;;;;;;11.02;5.90;;;;;;;;;;5030892;28;20400;-61
2023/08/19 09:46:32;;;;;;;9.32;5.97;;;;;;;;;;5029017;28;20136;-60
2023/08/19 09:48:59;;;;;;;11.27;5.63;;;;;;;;;;5030822;28;20052;-61
2023/08/19 09:51:27;;;;;;;7.80;5.50;;;;;;;;;;5033568;28;20036;-61
2023/08/19 09:53:55;;;;;;;;;;;;;;;;;;5034188;28;20037;-61
2023/08/19 09:56:27;;;;;;;10.57;5.55;;;;;;;;;;5040033;28;19913;-61
2023/08/19 09:58:54;;;;;;;12.60;5.50;;;;;;;;;;5033532;28;20040;-61
2023/08/19 10:01:22;;;;;;;10.85;5.47;;;;;;;;;;5039083;28;20045;-61
2023/08/19 10:03:49;;;;;;;11.45;5.22;;;;;;;;;;5029914;28;20037;-61
2023/08/19 10:06:25;;;;;;;9.60;5.53;;;;;;;;;;5025427;28;20048;-61
2023/08/19 10:09:04;;;;;;;11.27;5.07;;;;;;;;;;5031355;28;20037;-61
2023/08/19 10:11:31;;;;;;;11.80;5.10;;;;;;;;;;5029823;28;20034;-61
2023/08/19 10:14:03;;;;;;;10.55;5.32;;;;;;;;;;5029524;28;20034;-61
2023/08/19 10:16:32;;;;;;;12.70;5.15;;;;;;;;;;5034091;28;20389;-61
2023/08/19 10:19:00;;;;;;;11.02;4.57;;;;;;;;;;5033668;28;20037;-61
2023/08/19 10:21:28;;;;;;;8.70;4.20;;;;;;;;;;5032741;28;20037;-61
2023/08/19 10:23:56;;;;;;;11.38;4.50;;;;;;;;;;5032255;28;20300;-61
2023/08/19 10:26:22;;;;;;;7.28;4.03;;;;;;;;;;5032953;28;20054;-62
2023/08/19 10:29:14;;;;;;;8.23;4.03;;;;;;;;;;5034693;28;20033;-61
2023/08/19 10:31:42;;;;;;;9.30;4.40;;;;;;;;;;5030649;28;20045;-61
2023/08/19 10:34:18;;;;;;;9.32;4.28;;;;;;;;;;5025875;28;20049;-61
2023/08/19 10:37:04;;;;;;;10.20;3.95;;;;;;;;;;5031972;28;20048;-62
2023/08/19 10:39:31;;;;;;;6.90;3.72;;;;;;;;;;5033355;28;20030;-61
2023/08/19 10:41:57;;;;;;;7.30;3.70;;;;;;;;;;5027603;28;20034;-62
2023/08/19 10:44:31;;;;;;;7.63;4.05;;;;;;;;;;5035622;28;20417;-61
2023/08/19 10:47:13;;;;;;;13.18;4.10;;;;;;;;;;5030523;28;20484;-61
2023/08/19 10:49:39;;;;;;;9.55;4.15;;;;;;;;;;5038389;28;20125;-61
2023/08/19 10:52:06;;;;;;;6.43;4.03;;;;;;;;;;5032376;28;20033;-61
2023/08/19 10:54:38;;;;;;;8.38;4.00;;;;;;;;;;5031803;28;20038;-63
2023/08/19 10:57:12;;;;;;;7.90;4.32;;;;;;;;;;5038974;28;20048;-62
2023/08/19 10:59:47;;;;;;;6.20;3.97;;;;;;;;;;5030955;28;20049;-61
2023/08/19 11:02:14;;;;;;;7.70;4.03;;;;;;;;;;5038470;28;20040;-61
2023/08/19 11:04:41;;;;;;;7.25;3.97;;;;;;;;;;5037975;28;20052;-62
2023/08/19 11:07:08;;;;;;;10.55;4.20;;;;;;;;;;5032118;28;20501;-62
2023/08/19 11:09:35;;;;;;;9.27;4.53;;;;;;;;;;5032366;28;20089;-61
2023/08/19 11:12:04;;;;;;;9.77;3.97;;;;;;;;;;5032135;28;20044;-62
2023/08/19 11:14:30;;;;;;;5.25;4.05;;;;;;;;;;5031068;28;20030;-62
2023/08/19 11:16:57;;;;;;;7.53;3.83;;;;;;;;;;5029937;28;20041;-62
2023/08/19 11:19:24;;;;;;;9.60;4.07;;;;;;;;;;5029928;28;20477;-62
2023/08/19 11:21:50;;;;;;;10.23;3.95;;;;;;;;;;5027607;28;20048;-62
2023/08/19 11:24:17;;;;;;;8.10;3.70;;;;;;;;;;5025410;28;20025;-62
2023/08/19 11:26:45;;;;;;;5.88;4.13;;;;;;;;;;5028025;28;20041;-62
2023/08/19 11:29:11;;;;;;;;;;;;;;;;;;5031341;28;20079;-61
2023/08/19 11:31:41;;;;;;;13.07;3.67;;;;;;;;;;5030518;28;19913;-62
2023/08/19 11:34:12;;;;;;;7.82;3.38;;;;;;;;;;5034188;28;20036;-63
2023/08/19 11:36:40;;;;;;;8.50;4.35;;;;;;;;;;5030534;28;20037;-61
2023/08/19 11:39:07;;;;;;;8.00;3.80;;;;;;;;;;5031571;28;20076;-61
2023/08/19 11:41:34;;;;;;;12.65;3.40;;;;;;;;;;5025325;28;20033;-61
2023/08/19 11:44:05;;;;;;;5.93;3.40;;;;;;;;;;5034246;28;20036;-61
2023/08/19 11:46:33;;;;;;;6.93;3.20;;;;;;;;;;5030975;28;20038;-62
2023/08/19 11:49:09;;;;;;;6.68;3.47;;;;;;;;;;5036898;28;20492;-61
2023/08/19 11:51:39;;;;;;;7.40;3.42;;;;;;;;;;5027405;28;20049;-61
2023/08/19 11:54:08;;;;;;;7.85;3.30;;;;;;;;;;5035734;28;20503;-61
2023/08/19 11:56:52;;;;;;;6.60;3.40;;;;;;;;;;5030638;28;20033;-61
2023/08/19 11:59:27;;;;;;;4.28;3.03;;;;;;;;;;5037207;28;20041;-62
2023/08/19 12:01:53;;;;;;;8.27;3.05;;;;;;;;;;5031223;28;20072;-62
2023/08/19 12:04:19;;;;;;;8.52;3.45;;;;;;;;;;5037993;28;20396;-62
2023/08/19 12:06:47;;;;;;;8.43;3.20;;;;;;;;;;5031370;28;20041;-62
2023/08/19 12:09:18;;;;;;;5.82;3.13;;;;;;;;;;5028842;28;20048;-60
2023/08/19 12:11:48;;;;;;;9.38;3.15;;;;;;;;;;5031677;28;20484;-63
2023/08/19 12:14:14;;;;;;;9.95;3.17;;;;;;;;;;5030465;28;20056;-62
2023/08/19 12:16:40;;;;;;;4.38;3.05;;;;;;;;;;5028765;28;20033;-63
2023/08/19 12:19:07;;;;;;;5.07;3.10;;;;;;;;;;5027221;28;20040;-61
2023/08/19 12:21:33;;;;;;;8.02;4.22;;;;;;;;;;5027859;28;20051;-61
2023/08/19 12:23:59;;;;;;;6.47;2.90;;;;;;;;;;5032370;28;20048;-63
2023/08/19 12:26:27;;;;;;;4.90;2.80;;;;;;;;;;5033440;28;20612;-62
2023/08/19 12:28:53;;;;;;;;;;;;;;;;;;5036896;28;20036;-62
2023/08/19 12:31:19;;;;;;;5.78;2.90;;;;;;;;;;5025570;28;20390;-62
2023/08/19 12:33:45;;;;;;;4.47;2.75;;;;;;;;;;5029919;28;20038;-63
2023/08/19 12:36:13;;;;;;;7.95;3.20;;;;;;;;;;5028527;28;20037;-63
2023/08/19 12:38:39;;;;;;;10.32;3.20;;;;;;;;;;5028677;28;20139;-62
2023/08/19 12:41:05;;;;;;;6.47;2.83;;;;;;;;;;5030672;28;20148;-62
2023/08/19 12:43:31;;;;;;;7.65;3.05;;;;;;;;;;5026748;28;20030;-61
2023/08/19 12:45:57;;;;;;;7.07;3.35;;;;;;;;;;5024724;28;20410;-62
2023/08/19 12:48:23;;;;;;;6.03;2.92;;;;;;;;;;5039748;28;20075;-62
2023/08/19 12:50:49;;;;;;;7.88;3.22;;;;;;;;;;5034909;28;20501;-61
2023/08/19 12:53:16;;;;;;;5.85;3.00;;;;;;;;;;5031244;28;20045;-61
2023/08/19 12:55:42;;;;;;;8.98;3.47;;;;;;;;;;5033949;28;20041;-62
2023/08/19 12:58:08;;;;;;;6.20;3.50;;;;;;;;;;5034101;28;20037;-62
2023/08/19 13:00:34;;;;;;;7.10;3.50;;;;;;;;;;5037965;28;20036;-63
2023/08/19 13:03:00;;;;;;;7.30;2.97;;;;;;;;;;5034736;28;20034;-63
2023/08/19 13:05:26;;;;;;;7.57;3.30;;;;;;;;;;5039185;28;20507;-62
2023/08/19 13:07:55;;;;;;;8.40;3.30;;;;;;;;;;5034441;28;20040;-63
2023/08/19 13:10:21;;;;;;;6.28;3.00;;;;;;;;;;5035198;28;20030;-63
2023/08/19 13:12:49;;;;;;;7.18;3.15;;;;;;;;;;5028749;28;20042;-62
2023/08/19 13:15:17;;;;;;;6.55;2.78;;;;;;;;;;5034289;28;20092;-62
2023/08/19 13:17:44;;;;;;;8.30;3.00;;;;;;;;;;5030590;28;20512;-63
2023/08/19 13:20:11;;;;;;;7.75;2.85;;;;;;;;;;5034952;28;20054;-62
2023/08/19 13:22:37;;;;;;;8.40;2.65;;;;;;;;;;5030877;28;20040;-62
2023/08/19 13:25:07;;;;;;;3.90;2.60;;;;;;;;;;5033773;28;20052;-63
2023/08/19 13:27:34;;;;;;;8.32;2.60;;;;;;;;;;5033890;28;20045;-63
2023/08/19 13:30:00;;;;;;;9.23;2.38;;;;;;;;;;5034452;28;20047;-62
2023/08/19 13:32:26;;;;;;;3.72;2.28;;;;;;;;;;5034176;28;20501;-61
2023/08/19 13:34:52;;;;;;;4.68;2.60;;;;;;;;;;5034827;28;20029;-61
2023/08/19 13:37:18;;;;;;;6.25;2.45;;;;;;;;;;5032601;28;20034;-63
2023/08/19 13:39:44;;;;;;;5.57;2.58;;;;;;;;;;5037886;28;20036;-61
2023/08/19 13:42:10;;;;;;;5.20;2.70;;;;;;;;;;5031736;28;20048;-60
2023/08/19 13:44:36;;;;;;;7.50;2.40;;;;;;;;;;5039840;28;20045;-62
2023/08/19 13:47:03;;;;;;;4.85;2.40;;;;;;;;;;5033047;28;20053;-62
2023/08/19 13:49:29;;;;;;;4.65;2.67;;;;;;;;;;5039791;28;20044;-61
2023/08/19 13:51:55;;;;;;;5.88;2.85;;;;;;;;;;5015189;28;20030;-62
2023/08/19 13:54:21;;;;;;;7.72;2.83;;;;;;;;;;5037275;28;20048;-62
2023/08/19 13:56:52;;;;;;;3.20;2.47;;;;;;;;;;5032479;28;20045;-61
2023/08/19 13:59:18;;;;;;;8.73;2.42;;;;;;;;;;5043041;28;20044;-63
2023/08/19 14:01:44;;;;;;;7.10;2.75;;;;;;;;;;5045070;28;20043;-63
2023/08/19 14:04:10;;;;;;;4.40;2.58;;;;;;;;;;5038818;28;20048;-63
2023/08/19 14:06:37;;;;;;;6.85;2.38;;;;;;;;;;5033138;28;20424;-62
2023/08/19 14:09:03;;;;;;;3.83;2.30;;;;;;;;;;5034176;28;20029;-62
2023/08/19 14:11:29;;;;;;;5.30;2.60;;;;;;;;;;5031033;28;20064;-62
2023/08/19 14:13:56;;;;;;;3.63;2.47;;;;;;;;;;5032452;28;20049;-62
2023/08/19 14:16:22;;;;;;;4.75;2.35;;;;;;;;;;5033277;28;20030;-63
2023/08/19 14:18:48;;;;;;;7.35;2.85;;;;;;;;;;5033040;28;20045;-62
2023/08/19 14:21:14;;;;;;;6.78;2.60;;;;;;;;;;5033351;28;20033;-63
2023/08/19 14:23:42;;;;;;;4.15;2.60;;;;;;;;;;5034893;28;20029;-61
2023/08/19 14:26:08;;;;;;;6.47;2.78;;;;;;;;;;5035883;28;20057;-62
2023/08/19 14:28:34;;;;;;;4.22;2.38;;;;;;;;;;5039375;28;20038;-63
2023/08/19 14:31:00;;;;;;;4.75;2.55;;;;;;;;;;5033190;28;20044;-63
2023/08/19 14:33:27;;;;;;;5.85;2.42;;;;;;;;;;5029802;28;20037;-62
2023/08/19 14:35:53;;;;;;;4.38;2.30;;;;;;;;;;5037185;28;20041;-63
2023/08/19 14:38:19;;;;;;;6.35;2.92;;;;;;;;;;5037880;28;20517;-62
2023/08/19 14:40:45;;;;;;;10.48;3.95;;;;;;;;;;5033990;28;20033;-61
2023/08/19 14:43:11;;;;;;;7.20;3.50;;;;;;;;;;5031855;28;20038;-62